Time;durP1;ratioP1;P1;durP2;ratioP2;P2;SDS_P1;SDS_P2;PMS_P1;PMS_P2;Temp;Humidity;BMP_temperature;BMP_pressure;BME280_temperature;BME280_humidity;BME280_pressure;Samples;Min_cycle;Max_cycle;Signal;HPM_P1;HPM_P2
2021/10/26 00:01:04;;;;;;;0.40;0.40;;;;;;;14.63;69.25;101786.31;4997593;28;20030;-83
2021/10/26 00:03:31;;;;;;;0.10;0.10;;;;;;;14.63;69.41;101792.56;5002674;28;20531;-84
2021/10/26 00:05:57;;;;;;;0.52;0.52;;;;;;;14.64;69.24;101793.41;4998933;28;20037;-88
2021/10/26 00:08:23;;;;;;;1.42;1.33;;;;;;;14.60;69.64;101805.94;4998109;28;20497;-83
2021/10/26 00:10:50;;;;;;;0.25;0.25;;;;;;;14.69;69.17;101810.22;5010234;28;20040;-83
2021/10/26 00:13:16;;;;;;;0.57;0.57;;;;;;;14.68;69.60;101803.16;5002527;28;20061;-84
2021/10/26 00:15:43;;;;;;;0.93;0.93;;;;;;;14.63;69.75;101815.66;4995256;28;20026;-85
2021/10/26 00:18:09;;;;;;;1.30;1.20;;;;;;;14.72;69.51;101810.19;4996389;28;20034;-87
2021/10/26 00:20:36;;;;;;;0.15;0.15;;;;;;;14.71;69.66;101816.41;5008319;28;20017;-84
2021/10/26 00:23:02;;;;;;;0.40;0.40;;;;;;;14.66;69.98;101820.97;5005043;28;20053;-84
2021/10/26 00:25:29;;;;;;;0.55;0.55;;;;;;;14.78;69.65;101823.38;4998578;28;20034;-86
2021/10/26 00:27:56;;;;;;;1.50;1.40;;;;;;;14.75;69.48;101811.91;4996036;28;20026;-85
2021/10/26 00:30:22;;;;;;;0.30;0.30;;;;;;;14.79;69.71;101819.81;4994412;28;20330;-83
2021/10/26 00:32:49;;;;;;;0.68;0.68;;;;;;;14.80;69.70;101810.88;4997692;28;20034;-84
2021/10/26 00:35:16;;;;;;;0.30;0.30;;;;;;;14.79;69.55;101819.81;4994625;28;20097;-84
2021/10/26 00:37:44;;;;;;;0.75;0.75;;;;;;;14.72;69.84;101826.19;4997837;28;20022;-84
2021/10/26 00:40:12;;;;;;;1.00;1.00;;;;;;;14.83;69.55;101825.97;4993642;28;20045;-83
2021/10/26 00:42:38;;;;;;;0.13;0.13;;;;;;;14.84;69.50;101825.91;4998938;28;20049;-91
2021/10/26 00:45:06;;;;;;;0.20;0.20;;;;;;;14.81;69.59;101827.78;4999128;28;20037;-83
2021/10/26 00:47:32;;;;;;;0.98;0.98;;;;;;;14.73;69.79;101825.28;4998536;28;20030;-84
2021/10/26 00:50:00;;;;;;;0.52;0.52;;;;;;;14.64;70.28;101828.09;4994150;28;20036;-84
2021/10/26 00:52:27;;;;;;;0.40;0.40;;;;;;;14.74;69.73;101843.00;4995393;28;20366;-83
2021/10/26 00:54:54;;;;;;;0.38;0.38;;;;;;;14.74;69.97;101842.16;4993240;28;20038;-84
2021/10/26 00:57:25;;;;;;;0.30;0.30;;;;;;;14.72;69.59;101837.72;4996341;28;20033;-83
2021/10/26 00:59:51;;;;;;;0.75;0.57;;;;;;;14.69;69.86;101850.25;4994834;28;20038;-83
2021/10/26 01:02:18;;;;;;;0.20;0.20;;;;;;;14.68;69.80;101845.84;4992608;28;20042;-83
2021/10/26 01:04:44;;;;;;;1.10;1.10;;;;;;;14.59;70.28;101838.84;4997156;28;20034;-83
2021/10/26 01:07:14;;;;;;;1.50;1.50;;;;;;;14.71;69.87;101843.09;4992351;28;20164;-84
2021/10/26 01:09:41;;;;;;;4.07;0.82;;;;;;;14.75;69.77;101838.56;4994042;28;20037;-83
2021/10/26 01:12:09;;;;;;;0.10;0.10;;;;;;;14.63;69.74;101842.34;4996044;28;20508;-84
2021/10/26 01:14:37;;;;;;;1.38;1.30;;;;;;;14.64;69.68;101849.44;4997189;28;20445;-83
2021/10/26 01:17:06;;;;;;;0.22;0.22;;;;;;;14.59;69.92;101843.31;5008041;28;20519;-83
2021/10/26 01:19:43;;;;;;;0.93;0.93;;;;;;;14.56;69.89;101845.13;4998195;28;20385;-83
2021/10/26 01:22:10;;;;;;;0.10;0.10;;;;;;;14.53;69.68;101845.19;5006466;28;20492;-83
2021/10/26 01:24:36;;;;;;;0.38;0.38;;;;;;;14.47;70.10;101842.66;5008223;28;20030;-83
2021/10/26 01:27:03;;;;;;;0.10;0.10;;;;;;;14.47;69.67;101845.31;5000617;28;20473;-86
2021/10/26 01:29:30;;;;;;;0.28;0.28;;;;;;;14.45;69.32;101852.47;5001576;28;20041;-83
2021/10/26 01:31:56;;;;;;;1.27;1.27;;;;;;;14.35;69.74;101845.56;5000139;28;20072;-83
2021/10/26 01:34:22;;;;;;;0.93;0.93;;;;;;;14.28;69.99;101838.59;5002943;28;20121;-83
2021/10/26 01:36:50;;;;;;;0.55;0.55;;;;;;;14.29;69.39;101845.69;5003339;28;20036;-85
2021/10/26 01:39:16;;;;;;;0.10;0.10;;;;;;;14.30;69.29;101842.13;5000436;28;20030;-84
2021/10/26 01:41:43;;;;;;;0.85;0.85;;;;;;;14.23;69.05;101842.25;5002217;28;20026;-83
2021/10/26 01:44:09;;;;;;;1.38;1.27;;;;;;;14.16;69.47;101839.72;5001525;28;20085;-83
2021/10/26 01:46:39;;;;;;;0.10;0.10;;;;;;;14.13;69.14;101848.66;5005439;28;20056;-83
2021/10/26 01:49:05;;;;;;;0.15;0.15;;;;;;;14.13;69.22;101840.66;5010576;28;20380;-83
2021/10/26 01:51:32;;;;;;;0.28;0.28;;;;;;;14.04;69.39;101830.16;5002005;28;20062;-84
2021/10/26 01:53:58;;;;;;;0.63;0.63;;;;;;;14.04;69.16;101835.50;5002311;28;20023;-83
2021/10/26 01:56:25;;;;;;;0.60;0.60;;;;;;;13.94;69.53;101839.25;5012694;28;20405;-83
2021/10/26 01:58:51;;;;;;;0.10;0.10;;;;;;;13.88;69.26;101846.44;5008953;28;20029;-83
2021/10/26 02:01:18;;;;;;;0.10;0.10;;;;;;;13.85;69.78;101846.47;5002504;28;20822;-84
2021/10/26 02:03:44;;;;;;;0.35;0.35;;;;;;;13.85;69.49;101851.81;5000901;28;20101;-82
2021/10/26 02:06:11;;;;;;;0.43;0.43;;;;;;;13.80;69.22;101852.81;5003079;28;20177;-83
2021/10/26 02:08:37;;;;;;;0.10;0.10;;;;;;;13.75;70.21;101855.53;5001553;28;20426;-83
2021/10/26 02:11:03;;;;;;;0.28;0.28;;;;;;;13.68;70.24;101851.22;5000489;28;20101;-83
2021/10/26 02:13:30;;;;;;;0.70;0.70;;;;;;;13.67;70.13;101852.13;5006723;28;20157;-82
2021/10/26 02:15:56;;;;;;;0.10;0.10;;;;;;;13.62;69.96;101854.00;5004451;28;20030;-82
2021/10/26 02:18:23;;;;;;;0.30;0.30;;;;;;;13.66;69.88;101850.38;4999414;28;20034;-82
2021/10/26 02:20:49;;;;;;;0.10;0.10;;;;;;;13.64;70.45;101847.72;5001015;28;20485;-82
2021/10/26 02:23:16;;;;;;;0.15;0.15;;;;;;;13.67;69.95;101854.78;5001432;28;20034;-81
2021/10/26 02:25:43;;;;;;;0.32;0.32;;;;;;;13.63;70.62;101855.75;5002515;28;20056;-81
2021/10/26 02:28:09;;;;;;;0.30;0.30;;;;;;;13.66;70.12;101855.72;5000175;28;20021;-82
2021/10/26 02:30:36;;;;;;;0.30;0.30;;;;;;;13.61;69.85;101854.88;5000208;28;20034;-82
2021/10/26 02:33:03;;;;;;;0.10;0.10;;;;;;;13.47;70.93;101866.66;5004431;28;20427;-81
2021/10/26 02:35:30;;;;;;;0.30;0.30;;;;;;;13.56;70.38;101863.84;5012467;28;20041;-83
2021/10/26 02:37:56;;;;;;;0.35;0.35;;;;;;;13.54;69.87;101868.28;5004355;28;20104;-83
2021/10/26 02:40:23;;;;;;;5.03;2.25;;;;;;;13.52;70.63;101867.47;4997259;28;20030;-82
2021/10/26 02:42:49;;;;;;;0.10;0.10;;;;;;;13.52;69.96;101869.22;5002448;28;20065;-83
2021/10/26 02:45:18;;;;;;;0.17;0.17;;;;;;;13.52;70.13;101870.13;4999621;28;20051;-82
2021/10/26 02:47:45;;;;;;;1.45;1.35;;;;;;;13.51;70.19;101873.69;4999379;28;20036;-83
2021/10/26 02:50:12;;;;;;;1.00;1.00;;;;;;;13.50;70.79;101871.94;4997881;28;20022;-83
2021/10/26 02:52:39;;;;;;;0.20;0.20;;;;;;;13.48;70.22;101879.03;4998674;28;20058;-82
2021/10/26 02:55:07;;;;;;;0.47;0.47;;;;;;;13.46;70.81;101886.19;4999675;28;20030;-82
2021/10/26 02:57:34;;;;;;;0.20;0.20;;;;;;;13.46;70.54;101886.19;5000587;28;20089;-82
2021/10/26 03:00:00;;;;;;;1.20;1.17;;;;;;;13.42;71.19;101880.03;5001394;28;20026;-82
2021/10/26 03:02:26;;;;;;;1.10;0.90;;;;;;;13.40;70.88;101880.97;5002242;28;20112;-82
2021/10/26 03:04:54;;;;;;;1.67;1.58;;;;;;;13.45;70.12;101887.09;5009058;28;20038;-82
2021/10/26 03:07:21;;;;;;;0.20;0.20;;;;;;;13.41;70.85;101888.06;5009779;28;20117;-82
2021/10/26 03:09:47;;;;;;;0.20;0.20;;;;;;;13.37;70.79;101886.28;5012247;28;20416;-83
2021/10/26 03:12:14;;;;;;;0.20;0.20;;;;;;;13.39;71.25;101881.88;5011222;28;20400;-83
2021/10/26 03:14:43;;;;;;;0.20;0.20;;;;;;;13.43;70.70;101876.47;5011933;28;20472;-82
2021/10/26 03:17:09;;;;;;;1.17;1.17;;;;;;;13.47;69.98;101879.06;5008067;28;20079;-84
2021/10/26 03:19:35;;;;;;;1.05;0.95;;;;;;;13.49;70.73;101885.28;5012755;28;20370;-84
2021/10/26 03:22:02;;;;;;;0.63;0.63;;;;;;;13.48;70.65;101883.50;5011191;28;20556;-82
2021/10/26 03:24:29;;;;;;;0.32;0.32;;;;;;;13.51;70.68;101883.47;5013982;28;20079;-83
2021/10/26 03:26:56;;;;;;;0.15;0.15;;;;;;;13.49;70.94;101880.81;5013488;28;20030;-82
2021/10/26 03:29:23;;;;;;;1.35;1.33;;;;;;;13.46;70.36;101880.88;5013431;28;20038;-83
2021/10/26 03:31:53;;;;;;;0.93;0.63;;;;;;;13.51;70.56;101878.16;5013582;28;20022;-83
2021/10/26 03:34:20;;;;;;;0.20;0.20;;;;;;;13.51;70.94;101883.47;5012330;28;20026;-82
2021/10/26 03:36:46;;;;;;;0.65;0.65;;;;;;;13.53;70.40;101892.28;5007941;28;20034;-84
2021/10/26 03:39:13;;;;;;;2.35;1.27;;;;;;;13.55;70.45;101886.03;4998105;28;20026;-85
2021/10/26 03:41:39;;;;;;;0.25;0.25;;;;;;;13.51;71.30;101884.34;4999580;28;20033;-83
2021/10/26 03:44:05;;;;;;;0.10;0.10;;;;;;;13.45;71.44;101884.44;4996669;28;20030;-83
2021/10/26 03:46:33;;;;;;;0.90;0.68;;;;;;;13.55;71.23;101880.72;4996618;28;20036;-83
2021/10/26 03:49:00;;;;;;;3.72;0.70;;;;;;;13.51;71.29;101889.66;4999191;28;20109;-84
2021/10/26 03:51:26;;;;;;;0.68;0.68;;;;;;;13.50;70.88;101892.34;4996299;28;20487;-83
2021/10/26 03:53:52;;;;;;;0.40;0.40;;;;;;;13.53;70.92;101894.97;4994721;28;20027;-82
2021/10/26 03:56:19;;;;;;;0.10;0.10;;;;;;;13.52;71.54;101899.41;5007839;28;20096;-83
2021/10/26 03:58:45;;;;;;;0.57;0.57;;;;;;;13.56;70.89;101895.78;5008307;28;20463;-82
2021/10/26 04:01:11;;;;;;;0.85;0.85;;;;;;;13.59;71.40;101893.09;5001620;28;20022;-82
2021/10/26 04:03:38;;;;;;;0.20;0.20;;;;;;;13.61;71.22;101901.06;4995816;28;20034;-82
2021/10/26 04:06:07;;;;;;;0.30;0.30;;;;;;;13.62;70.83;101907.25;5000647;28;20038;-82
2021/10/26 04:08:45;;;;;;;0.90;0.90;;;;;;;13.63;71.21;101903.69;5009120;28;20014;-82
2021/10/26 04:13:56;;;;;;;0.25;0.25;;;;;;;13.54;71.23;101908.22;5025505;28;20404;-83
2021/10/26 04:16:24;;;;;;;0.28;0.28;;;;;;;13.53;70.93;101902.94;5006912;28;20106;-83
2021/10/26 04:18:50;;;;;;;0.32;0.32;;;;;;;13.54;71.42;101902.91;5008119;28;20461;-83
2021/10/26 04:21:17;;;;;;;0.00;0.00;;;;;;;13.54;71.42;101900.25;5008559;28;20473;-83
2021/10/26 04:23:46;;;;;;;1.05;1.05;;;;;;;13.61;71.36;101894.81;4990769;28;20044;-83
2021/10/26 04:26:15;;;;;;;2.17;1.08;;;;;;;13.58;70.97;101901.09;5008227;28;20026;-83
2021/10/26 04:28:41;;;;;;;0.60;0.60;;;;;;;13.61;71.08;101902.81;5008212;28;20065;-84
2021/10/26 04:31:07;;;;;;;0.10;0.10;;;;;;;13.64;71.29;101908.97;5008203;28;20018;-83
2021/10/26 04:33:34;;;;;;;0.75;0.73;;;;;;;13.62;71.29;101912.56;5008329;28;20026;-83
2021/10/26 04:36:00;;;;;;;0.90;0.88;;;;;;;13.57;71.19;101916.19;5004877;28;20038;-83
2021/10/26 04:38:26;;;;;;;0.10;0.10;;;;;;;13.62;70.88;101912.56;5005473;28;20036;-82
2021/10/26 04:40:57;;;;;;;0.20;0.20;;;;;;;13.67;70.79;101913.38;5006271;28;20101;-83
2021/10/26 04:43:26;;;;;;;0.17;0.17;;;;;;;13.64;70.77;101910.78;5006038;28;20030;-83
2021/10/26 04:45:53;;;;;;;0.35;0.35;;;;;;;13.57;70.46;101918.84;5008626;28;20030;-83
2021/10/26 04:48:21;;;;;;;0.10;0.10;;;;;;;13.55;70.24;101923.31;5008017;28;20523;-84
2021/10/26 04:50:48;;;;;;;0.17;0.17;;;;;;;13.51;70.78;101916.28;5006920;28;20037;-84
2021/10/26 04:53:14;;;;;;;0.10;0.10;;;;;;;13.46;70.53;101933.22;5008069;28;20126;-83
2021/10/26 04:55:40;;;;;;;0.40;0.40;;;;;;;13.44;70.21;101925.25;5007519;28;20077;-83
2021/10/26 04:58:06;;;;;;;0.10;0.10;;;;;;;13.43;69.62;101924.41;5007521;28;20026;-83
2021/10/26 05:00:32;;;;;;;0.10;0.10;;;;;;;13.38;70.16;101920.03;5005850;28;20109;-83
2021/10/26 05:02:58;;;;;;;0.20;0.20;;;;;;;13.32;69.96;101920.97;5007894;28;20030;-84
2021/10/26 05:05:25;;;;;;;0.20;0.20;;;;;;;13.38;69.87;101936.00;5007542;28;20049;-83
2021/10/26 05:07:51;;;;;;;0.47;0.47;;;;;;;13.35;69.77;101930.69;5007006;28;20485;-83
2021/10/26 05:10:17;;;;;;;0.13;0.13;;;;;;;13.23;70.16;101935.28;5007475;28;20022;-83
2021/10/26 05:12:43;;;;;;;0.10;0.10;;;;;;;13.26;69.74;101937.03;5017676;28;20076;-83
2021/10/26 05:15:11;;;;;;;0.63;0.63;;;;;;;13.19;70.52;101936.22;5027051;28;20053;-83
2021/10/26 05:17:38;;;;;;;0.10;0.10;;;;;;;13.22;70.15;101944.19;5027250;28;20056;-88
2021/10/26 05:20:06;;;;;;;2.35;2.15;;;;;;;13.26;69.75;101947.69;5026420;28;20036;-82
2021/10/26 05:22:33;;;;;;;0.40;0.40;;;;;;;13.20;70.20;101937.97;5026090;28;20513;-84
2021/10/26 05:24:59;;;;;;;0.10;0.10;;;;;;;13.25;69.92;101951.22;5014800;28;20091;-84
2021/10/26 05:27:25;;;;;;;0.10;0.10;;;;;;;13.23;69.95;101953.94;5013904;28;20061;-83
2021/10/26 05:29:51;;;;;;;0.28;0.28;;;;;;;13.23;70.12;101953.03;5013574;28;20587;-83
2021/10/26 05:32:18;;;;;;;0.80;0.73;;;;;;;13.27;69.92;101963.63;5012762;28;20084;-83
2021/10/26 05:34:44;;;;;;;0.52;0.52;;;;;;;13.26;70.25;101955.66;5013407;28;20053;-83
2021/10/26 05:37:11;;;;;;;0.10;0.10;;;;;;;13.26;70.02;101960.97;5013370;28;20294;-84
2021/10/26 05:39:38;;;;;;;0.10;0.10;;;;;;;13.30;70.36;101964.50;5010222;28;20389;-84
2021/10/26 05:42:05;;;;;;;0.45;0.45;;;;;;;13.24;70.68;101963.63;5012651;28;20187;-84
2021/10/26 05:44:33;;;;;;;0.15;0.15;;;;;;;13.14;71.03;101969.13;5013120;28;20153;-84
2021/10/26 05:46:59;;;;;;;0.35;0.35;;;;;;;13.23;70.87;101972.56;5012962;28;20044;-84
2021/10/26 05:49:25;;;;;;;0.43;0.43;;;;;;;13.22;70.62;101978.78;5013416;28;20033;-82
2021/10/26 05:51:51;;;;;;;0.68;0.68;;;;;;;13.21;70.56;101977.00;5012764;28;20049;-85
2021/10/26 05:54:17;;;;;;;0.10;0.10;;;;;;;13.22;70.69;101978.78;5012631;28;20034;-83
2021/10/26 05:56:43;;;;;;;0.20;0.20;;;;;;;13.24;70.41;101976.94;5010205;28;20030;-83
2021/10/26 05:59:09;;;;;;;0.25;0.25;;;;;;;13.13;71.00;101983.31;5012845;28;20029;-83
2021/10/26 06:01:36;;;;;;;0.20;0.20;;;;;;;13.18;70.76;101981.47;5012450;28;20396;-87
2021/10/26 06:04:03;;;;;;;0.17;0.17;;;;;;;13.18;70.24;101979.69;5013018;28;20164;-84
2021/10/26 06:06:29;;;;;;;1.02;1.02;;;;;;;13.09;70.30;101971.84;5013014;28;20026;-83
2021/10/26 06:08:56;;;;;;;1.25;0.70;;;;;;;13.07;70.31;101973.63;5013098;28;20384;-84
2021/10/26 06:11:24;;;;;;;0.20;0.20;;;;;;;13.01;70.26;101966.63;5012231;28;20172;-86
2021/10/26 06:14:01;;;;;;;0.25;0.25;;;;;;;13.01;70.19;101960.41;5012847;28;20034;-86
2021/10/26 06:16:29;;;;;;;0.30;0.30;;;;;;;12.99;69.78;101962.22;5010020;28;20029;-83
2021/10/26 06:18:55;;;;;;;0.10;0.10;;;;;;;12.93;69.98;101953.41;5011096;28;20596;-83
2021/10/26 06:21:21;;;;;;;0.25;0.25;;;;;;;12.88;69.95;101963.19;5010374;28;20049;-83
2021/10/26 06:23:47;;;;;;;0.28;0.28;;;;;;;12.82;69.53;101973.03;5009942;28;20069;-83
2021/10/26 06:26:13;;;;;;;0.20;0.20;;;;;;;12.80;69.58;101978.38;5008339;28;20029;-83
2021/10/26 06:28:40;;;;;;;0.10;0.10;;;;;;;12.74;69.53;101975.78;5012152;28;20042;-83
2021/10/26 06:31:06;;;;;;;0.90;0.80;;;;;;;12.64;70.41;101977.66;5011005;28;20025;-83
2021/10/26 06:33:32;;;;;;;0.47;0.47;;;;;;;12.60;70.12;101971.50;5010075;28;20586;-83
2021/10/26 06:35:58;;;;;;;1.40;1.33;;;;;;;12.60;70.32;101986.56;5011079;28;20017;-83
2021/10/26 06:38:24;;;;;;;0.20;0.20;;;;;;;12.57;69.55;101979.50;5012074;28;20056;-83
2021/10/26 06:40:50;;;;;;;0.10;0.10;;;;;;;12.51;69.82;101984.91;5007843;28;20105;-83
2021/10/26 06:43:17;;;;;;;0.15;0.15;;;;;;;12.52;69.80;101986.63;5009474;28;20054;-83
2021/10/26 06:45:43;;;;;;;0.10;0.10;;;;;;;12.52;69.62;101980.44;5006953;28;20030;-83
2021/10/26 06:48:09;;;;;;;0.93;0.90;;;;;;;12.52;69.33;101991.94;5006771;28;20072;-82
2021/10/26 06:50:37;;;;;;;0.57;0.57;;;;;;;12.46;70.32;101992.91;5008496;28;20026;-83
2021/10/26 06:53:04;;;;;;;0.17;0.17;;;;;;;12.47;69.59;101996.44;5005258;28;20041;-82
2021/10/26 06:55:32;;;;;;;6.70;1.58;;;;;;;12.47;70.40;102004.41;5010656;28;20022;-87
2021/10/26 06:57:58;;;;;;;0.52;0.52;;;;;;;12.46;69.87;102006.19;5012048;28;20026;-83
2021/10/26 07:00:25;;;;;;;0.10;0.10;;;;;;;12.50;70.20;102012.38;5008309;28;21156;-82
2021/10/26 07:02:54;;;;;;;0.10;0.10;;;;;;;12.48;69.71;102003.50;5010779;28;20030;-82
2021/10/26 07:05:22;;;;;;;0.25;0.25;;;;;;;12.53;70.39;102004.34;5011596;28;20492;-83
2021/10/26 07:07:49;;;;;;;0.10;0.10;;;;;;;12.52;70.20;102007.91;5011708;28;20420;-83
2021/10/26 07:10:17;;;;;;;0.25;0.25;;;;;;;12.58;69.56;102007.84;5009262;28;20030;-83
2021/10/26 07:12:45;;;;;;;0.10;0.10;;;;;;;12.62;70.02;102003.38;5001892;28;20029;-83
2021/10/26 07:15:13;;;;;;;0.10;0.10;;;;;;;12.67;69.71;102000.69;5012013;28;20021;-83
2021/10/26 07:17:41;;;;;;;0.80;0.80;;;;;;;12.70;70.09;102006.84;5012006;28;20089;-83
2021/10/26 07:20:11;;;;;;;0.10;0.10;;;;;;;12.79;70.23;102011.19;5012206;28;20034;-83
2021/10/26 07:22:38;;;;;;;0.20;0.20;;;;;;;12.88;70.49;102013.75;5008881;28;20215;-84
2021/10/26 07:25:08;;;;;;;0.10;0.10;;;;;;;12.93;70.72;102016.34;5011447;28;20033;-89
2021/10/26 07:27:37;;;;;;;0.10;0.10;;;;;;;13.03;70.42;102015.34;5012534;28;20041;-83
2021/10/26 07:30:06;;;;;;;0.10;0.10;;;;;;;13.11;70.26;102018.81;5007178;28;20477;-82
2021/10/26 07:32:33;;;;;;;0.63;0.63;;;;;;;13.17;70.67;102023.19;4999558;28;20401;-83
2021/10/26 07:34:59;;;;;;;0.68;0.68;;;;;;;13.21;70.81;102024.91;5006954;28;20034;-84
2021/10/26 07:37:33;;;;;;;0.20;0.20;;;;;;;13.32;70.45;102023.88;5008696;28;20045;-83
2021/10/26 07:39:59;;;;;;;0.17;0.17;;;;;;;13.48;70.10;102030.81;5009060;28;20038;-82
2021/10/26 07:42:25;;;;;;;0.13;0.13;;;;;;;13.58;70.57;102029.81;5009302;28;20060;-82
2021/10/26 07:44:55;;;;;;;0.35;0.30;;;;;;;13.56;70.84;102028.94;5008437;28;20038;-85
2021/10/26 07:47:23;;;;;;;0.10;0.10;;;;;;;13.73;70.51;102039.34;5009329;28;20042;-83
2021/10/26 07:49:50;;;;;;;0.57;0.28;;;;;;;13.81;70.62;102033.91;5009289;28;20513;-83
2021/10/26 07:52:17;;;;;;;0.30;0.30;;;;;;;13.83;70.21;102032.13;5002157;28;20125;-82
2021/10/26 07:54:50;;;;;;;0.10;0.10;;;;;;;13.81;70.31;102031.25;4999609;28;20591;-83
2021/10/26 07:57:17;;;;;;;5.72;1.52;;;;;;;13.82;69.84;102038.34;5008092;28;20525;-83
2021/10/26 07:59:45;;;;;;;0.20;0.20;;;;;;;13.84;69.69;102044.50;5005924;28;20472;-82
2021/10/26 08:02:14;;;;;;;0.10;0.10;;;;;;;13.96;69.88;102039.94;5005438;28;20032;-89
2021/10/26 08:04:43;;;;;;;0.10;0.10;;;;;;;13.91;69.71;102032.00;5005905;28;20042;-82
2021/10/26 08:07:09;;;;;;;0.40;0.40;;;;;;;13.95;69.82;102031.03;5004320;28;20072;-84
2021/10/26 08:09:36;;;;;;;0.17;0.17;;;;;;;13.89;69.18;102034.69;5008744;28;20030;-83
2021/10/26 08:12:03;;;;;;;0.22;0.22;;;;;;;14.05;69.45;102037.97;5009913;28;20531;-82
2021/10/26 08:14:30;;;;;;;0.13;0.13;;;;;;;14.02;69.10;102032.72;5009233;28;20061;-81
2021/10/26 08:16:56;;;;;;;1.05;0.95;;;;;;;14.06;68.97;102039.75;5009478;28;20472;-82
2021/10/26 08:19:22;;;;;;;0.10;0.10;;;;;;;14.01;69.12;102046.94;5009786;28;20453;-82
2021/10/26 08:21:49;;;;;;;0.10;0.10;;;;;;;14.13;69.38;102050.31;5009571;28;20041;-81
2021/10/26 08:24:19;;;;;;;0.40;0.40;;;;;;;14.08;69.15;102055.72;5009033;28;20772;-81
2021/10/26 08:26:55;;;;;;;0.68;0.68;;;;;;;14.22;69.47;102037.72;5008338;28;20034;-81
2021/10/26 08:35:24;;;;;;;0.13;0.13;;;;;;;14.38;69.40;102041.03;5056706;28;20424;-79
2021/10/26 08:37:55;;;;;;;0.10;0.10;;;;;;;14.46;69.48;102040.88;5040299;28;20029;-79
2021/10/26 08:40:23;;;;;;;0.82;0.82;;;;;;;14.42;68.91;102043.63;5039236;28;20026;-83
2021/10/26 08:42:53;;;;;;;2.15;2.00;;;;;;;14.50;68.73;102047.91;5044766;28;20041;-81
2021/10/26 08:45:21;;;;;;;1.45;1.23;;;;;;;14.50;68.37;102037.25;5042294;28;20044;-87
2021/10/26 08:47:48;;;;;;;0.10;0.10;;;;;;;14.53;68.30;102041.69;5043560;28;20058;-84
2021/10/26 08:50:15;;;;;;;1.45;0.52;;;;;;;14.43;68.23;102038.28;5043317;28;20480;-84
2021/10/26 08:52:42;;;;;;;0.10;0.10;;;;;;;14.46;68.33;102046.22;5046923;28;20108;-82
2021/10/26 08:55:10;;;;;;;0.57;0.57;;;;;;;14.63;68.21;102029.94;5041065;28;20760;-85
2021/10/26 08:57:36;;;;;;;1.15;1.15;;;;;;;14.76;68.61;102033.28;5036865;28;20044;-84
2021/10/26 09:00:06;;;;;;;0.25;0.25;;;;;;;14.75;67.92;102027.97;5034913;28;20037;-83
2021/10/26 09:02:40;;;;;;;0.73;0.73;;;;;;;14.85;67.64;102032.22;5039343;28;20044;-83
2021/10/26 09:05:09;;;;;;;1.65;1.38;;;;;;;14.89;67.70;102033.91;5039036;28;20464;-84
2021/10/26 09:07:36;;;;;;;0.20;0.20;;;;;;;14.96;67.69;102040.03;5041908;28;20037;-83
2021/10/26 09:10:11;;;;;;;0.28;0.28;;;;;;;15.07;67.44;102030.03;5038794;28;20116;-83
2021/10/26 09:18:05;;;;;;;1.15;1.05;;;;;;;15.05;66.73;102026.50;5034821;28;20045;-82
2021/10/26 09:20:32;;;;;;;0.30;0.30;;;;;;;15.04;67.11;102016.72;5041400;28;20029;-82
2021/10/26 09:23:00;;;;;;;1.17;0.63;;;;;;;15.12;66.77;102019.28;5045938;28;20488;-82
2021/10/26 09:25:36;;;;;;;1.05;1.00;;;;;;;15.26;66.57;102022.53;5045544;28;20120;-83
2021/10/26 09:28:13;;;;;;;2.30;1.30;;;;;;;15.30;66.66;102020.66;5045802;28;20029;-83
2021/10/26 09:30:40;;;;;;;0.40;0.40;;;;;;;15.31;66.74;102027.78;5045301;28;20032;-83
2021/10/26 09:33:08;;;;;;;2.17;2.08;;;;;;;15.43;66.67;102029.31;5045469;28;20076;-83
2021/10/26 09:35:35;;;;;;;0.77;0.77;;;;;;;15.44;66.34;102037.28;5045678;28;20098;-83
2021/10/26 09:38:02;;;;;;;0.63;0.63;;;;;;;15.41;66.63;102034.66;5043223;28;20017;-82
2021/10/26 09:40:43;;;;;;;0.10;0.10;;;;;;;15.41;66.49;102040.00;5041007;28;20044;-81
2021/10/26 09:43:11;;;;;;;0.68;0.68;;;;;;;15.39;66.56;102035.63;5042829;28;20029;-82
2021/10/26 09:45:41;;;;;;;0.47;0.47;;;;;;;15.35;66.31;102046.38;5043893;28;20408;-82
2021/10/26 09:48:13;;;;;;;2.55;1.67;;;;;;;15.40;66.74;102034.72;5038707;28;20029;-82
2021/10/26 09:50:41;;;;;;;0.10;0.10;;;;;;;15.30;67.11;102028.69;5042485;28;20036;-86
2021/10/26 09:53:10;;;;;;;0.45;0.45;;;;;;;15.41;66.34;102029.31;5040038;28;20043;-87
2021/10/26 09:55:47;;;;;;;1.27;1.23;;;;;;;15.41;66.74;102036.47;5034427;28;20040;-82
2021/10/26 09:58:15;;;;;;;0.90;0.90;;;;;;;15.35;67.02;102035.69;5044517;28;20033;-88
2021/10/26 10:00:45;;;;;;;0.20;0.20;;;;;;;15.32;67.24;102034.88;5040155;28;20028;-82
2021/10/26 10:03:19;;;;;;;0.63;0.63;;;;;;;15.32;67.61;102037.53;5041269;28;20033;-83
2021/10/26 10:06:04;;;;;;;1.33;1.23;;;;;;;15.36;67.85;102036.56;5040610;28;20060;-90
2021/10/26 10:08:34;;;;;;;0.10;0.10;;;;;;;15.38;67.76;102040.09;5039947;28;20052;-89
2021/10/26 10:11:19;;;;;;;2.35;1.55;;;;;;;15.40;68.12;102035.56;5038542;28;20049;-86
2021/10/26 10:13:54;;;;;;;2.75;1.65;;;;;;;15.34;68.17;102030.41;5035913;28;20033;-83
2021/10/26 10:16:21;;;;;;;0.43;0.43;;;;;;;15.31;68.39;102036.66;5036915;28;20153;-80
2021/10/26 10:18:50;;;;;;;0.20;0.20;;;;;;;15.32;68.39;102026.88;5035451;28;20463;-83
2021/10/26 10:21:23;;;;;;;0.30;0.30;;;;;;;15.34;68.54;102031.25;5039917;28;20048;-84
2021/10/26 10:23:50;;;;;;;1.08;0.98;;;;;;;15.39;68.55;102016.91;5041158;28;20129;-83
2021/10/26 10:26:18;;;;;;;0.20;0.20;;;;;;;15.34;68.64;102017.91;5027290;28;20079;-85
2021/10/26 10:28:48;;;;;;;1.48;0.82;;;;;;;15.61;68.01;102015.53;5020184;28;20030;-89
2021/10/26 10:31:20;;;;;;;0.28;0.28;;;;;;;15.62;67.96;102019.97;5024520;28;20036;-90
2021/10/26 10:33:50;;;;;;;0.10;0.10;;;;;;;15.70;68.33;102022.47;5027285;28;20037;-84
2021/10/26 10:36:18;;;;;;;4.13;2.03;;;;;;;15.70;67.72;102011.78;5026657;28;20025;-83
2021/10/26 10:38:45;;;;;;;1.00;0.82;;;;;;;15.78;67.64;102006.28;5023126;28;20021;-92
2021/10/26 10:41:30;;;;;;;0.50;0.50;;;;;;;16.05;67.39;102012.78;5026635;28;20025;-85
2021/10/26 10:43:58;;;;;;;0.40;0.40;;;;;;;15.92;66.88;102022.88;5027097;28;20041;-82
2021/10/26 10:46:55;;;;;;;0.43;0.43;;;;;;;15.99;66.65;102013.81;5024268;28;20064;-83
2021/10/26 10:52:15;;;;;;;1.20;1.20;;;;;;;15.88;66.82;102009.66;5023027;28;21134;-86
2021/10/26 10:55:00;;;;;;;0.22;0.22;;;;;;;15.99;66.44;102004.94;4997946;28;20484;-90
2021/10/26 10:57:37;;;;;;;4.95;0.82;;;;;;;16.01;66.26;102008.41;4991010;28;20120;-84
2021/10/26 11:00:24;;;;;;;0.28;0.28;;;;;;;16.07;65.87;102010.94;4987547;28;20173;-88
2021/10/26 11:02:53;;;;;;;0.52;0.52;;;;;;;16.21;66.03;102001.72;4985322;28;20061;-83
2021/10/26 11:08:42;;;;;;;0.30;0.30;;;;;;;16.50;65.53;102000.97;5081193;28;20426;-85
2021/10/26 11:11:09;;;;;;;1.17;1.17;;;;;;;16.53;65.63;102000.00;5065712;28;20075;-86
2021/10/26 11:13:36;;;;;;;9.10;1.73;;;;;;;16.53;64.97;102000.00;5053869;28;20464;-91
2021/10/26 11:16:07;;;;;;;0.10;0.10;;;;;;;16.60;64.54;102001.63;5040164;28;20038;-85
2021/10/26 11:26:46;;;;;;;4.80;1.23;;;;;;;16.56;64.71;102003.50;5038747;28;20447;-86
2021/10/26 11:29:14;;;;;;;0.73;0.73;;;;;;;16.67;64.16;101989.78;5022545;28;20026;-82
2021/10/26 11:31:48;;;;;;;0.90;0.90;;;;;;;16.64;63.62;102000.59;5019677;28;20037;-87
2021/10/26 11:34:20;;;;;;;0.28;0.28;;;;;;;16.82;63.78;101984.03;5006911;28;20381;-81
2021/10/26 11:37:06;;;;;;;0.10;0.10;;;;;;;16.92;63.75;101998.09;5010089;28;20060;-84
2021/10/26 11:39:35;;;;;;;0.25;0.25;;;;;;;16.85;63.28;101992.88;5021669;28;20034;-87
2021/10/26 11:42:04;;;;;;;0.60;0.60;;;;;;;16.90;63.58;101993.66;5019043;28;20096;-87
2021/10/26 11:44:31;;;;;;;0.65;0.65;;;;;;;16.87;63.38;101997.28;5015588;28;20519;-84
2021/10/26 11:47:01;;;;;;;0.52;0.52;;;;;;;16.93;63.49;102001.63;5017832;28;20038;-83
2021/10/26 11:49:30;;;;;;;0.30;0.30;;;;;;;16.71;62.92;101999.53;5004412;28;20488;-84
2021/10/26 11:52:01;;;;;;;1.10;0.55;;;;;;;16.79;63.06;102018.91;5016949;28;20048;-82
2021/10/26 11:54:30;;;;;;;0.20;0.20;;;;;;;16.68;63.25;102002.25;5018593;28;20030;-82
2021/10/26 11:56:58;;;;;;;0.52;0.52;;;;;;;16.61;63.38;102008.69;5027998;28;20022;-82